sensor_id;sensor_type;location;lat;lon;timestamp;pressure;altitude;pressure_sealevel;temperature;humidity
80164;BME280;70071;55.130;61.268;2024-03-17T00:00:38;99605.63;;;6.71;14.42
80164;BME280;70071;55.130;61.268;2024-03-17T00:03:06;99586.22;;;6.63;14.35
80164;BME280;70071;55.130;61.268;2024-03-17T00:05:36;99591.94;;;6.48;13.83
80164;BME280;70071;55.130;61.268;2024-03-17T00:08:02;99606.41;;;6.34;14.17
80164;BME280;70071;55.130;61.268;2024-03-17T00:10:31;99606.94;;;6.48;13.83
80164;BME280;70071;55.130;61.268;2024-03-17T00:12:57;99590.44;;;6.36;13.83
80164;BME280;70071;55.130;61.268;2024-03-17T00:15:24;99579.66;;;6.29;13.82
80164;BME280;70071;55.130;61.268;2024-03-17T00:17:50;99589.78;;;6.14;13.75
80164;BME280;70071;55.130;61.268;2024-03-17T00:20:16;99607.34;;;6.53;14.08
80164;BME280;70071;55.130;61.268;2024-03-17T00:22:49;99596.34;;;6.00;14.32
80164;BME280;70071;55.130;61.268;2024-03-17T00:25:16;99596.72;;;6.25;14.44
80164;BME280;70071;55.130;61.268;2024-03-17T00:27:43;99594.50;;;6.68;13.43
80164;BME280;70071;55.130;61.268;2024-03-17T00:30:11;99582.09;;;6.40;13.96
80164;BME280;70071;55.130;61.268;2024-03-17T00:32:42;99616.41;;;6.31;13.84
80164;BME280;70071;55.130;61.268;2024-03-17T00:35:09;99608.66;;;6.10;14.29
80164;BME280;70071;55.130;61.268;2024-03-17T00:37:39;99602.84;;;6.16;13.90
80164;BME280;70071;55.130;61.268;2024-03-17T00:40:06;99607.75;;;6.48;14.37
80164;BME280;70071;55.130;61.268;2024-03-17T00:42:32;99575.56;;;6.54;13.88
80164;BME280;70071;55.130;61.268;2024-03-17T00:44:59;99558.88;;;6.64;13.90
80164;BME280;70071;55.130;61.268;2024-03-17T00:47:31;99592.44;;;6.14;13.89
80164;BME280;70071;55.130;61.268;2024-03-17T00:49:57;99586.88;;;6.17;14.01
80164;BME280;70071;55.130;61.268;2024-03-17T00:52:23;99609.56;;;6.48;14.31
80164;BME280;70071;55.130;61.268;2024-03-17T00:54:49;99605.34;;;6.74;14.25
80164;BME280;70071;55.130;61.268;2024-03-17T00:57:15;99598.75;;;6.88;14.66
80164;BME280;70071;55.130;61.268;2024-03-17T00:59:42;99585.72;;;6.77;14.58
80164;BME280;70071;55.130;61.268;2024-03-17T01:02:12;99608.88;;;6.93;14.86
80164;BME280;70071;55.130;61.268;2024-03-17T01:04:42;99614.16;;;6.93;15.03
80164;BME280;70071;55.130;61.268;2024-03-17T01:07:09;99614.16;;;6.93;14.67
80164;BME280;70071;55.130;61.268;2024-03-17T01:09:35;99612.53;;;6.72;15.13
80164;BME280;70071;55.130;61.268;2024-03-17T01:12:01;99612.09;;;6.39;14.98
80164;BME280;70071;55.130;61.268;2024-03-17T01:14:28;99610.28;;;6.40;14.96
80164;BME280;70071;55.130;61.268;2024-03-17T01:16:55;99604.22;;;6.10;15.18
80164;BME280;70071;55.130;61.268;2024-03-17T01:19:21;99605.06;;;6.01;15.18
80164;BME280;70071;55.130;61.268;2024-03-17T01:21:47;99609.88;;;5.86;15.11
80164;BME280;70071;55.130;61.268;2024-03-17T01:24:13;99602.28;;;6.02;15.43
80164;BME280;70071;55.130;61.268;2024-03-17T01:26:39;99626.53;;;6.16;15.21
80164;BME280;70071;55.130;61.268;2024-03-17T01:29:05;99573.31;;;6.12;15.09
80164;BME280;70071;55.130;61.268;2024-03-17T01:31:31;99598.69;;;6.03;15.18
80164;BME280;70071;55.130;61.268;2024-03-17T01:33:57;99618.34;;;5.90;14.91
80164;BME280;70071;55.130;61.268;2024-03-17T01:36:23;99607.00;;;5.69;15.39
80164;BME280;70071;55.130;61.268;2024-03-17T01:38:49;99616.09;;;5.46;15.54
80164;BME280;70071;55.130;61.268;2024-03-17T01:41:15;99614.50;;;5.14;15.86
80164;BME280;70071;55.130;61.268;2024-03-17T01:43:41;99605.69;;;5.44;15.38
80164;BME280;70071;55.130;61.268;2024-03-17T01:46:14;99608.88;;;5.38;15.52
80164;BME280;70071;55.130;61.268;2024-03-17T01:48:41;99596.19;;;5.03;15.67
80164;BME280;70071;55.130;61.268;2024-03-17T01:51:08;99622.72;;;5.30;15.84
80164;BME280;70071;55.130;61.268;2024-03-17T01:53:35;99624.03;;;4.74;15.58
80164;BME280;70071;55.130;61.268;2024-03-17T01:56:02;99622.28;;;4.85;15.52
80164;BME280;70071;55.130;61.268;2024-03-17T01:58:30;99619.72;;;4.42;16.17
80164;BME280;70071;55.130;61.268;2024-03-17T02:00:56;99609.16;;;4.12;16.43
80164;BME280;70071;55.130;61.268;2024-03-17T02:03:22;99617.00;;;3.90;16.32
80164;BME280;70071;55.130;61.268;2024-03-17T02:05:48;99612.16;;;3.74;16.27
80164;BME280;70071;55.130;61.268;2024-03-17T02:08:15;99612.25;;;3.84;16.24
80164;BME280;70071;55.130;61.268;2024-03-17T02:10:41;99602.16;;;3.68;16.21
80164;BME280;70071;55.130;61.268;2024-03-17T02:13:07;99614.47;;;3.56;16.04
80164;BME280;70071;55.130;61.268;2024-03-17T02:15:34;99591.84;;;3.55;16.70
80164;BME280;70071;55.130;61.268;2024-03-17T02:18:19;99602.50;;;3.75;16.61
80164;BME280;70071;55.130;61.268;2024-03-17T02:20:45;99617.09;;;3.56;15.89
80164;BME280;70071;55.130;61.268;2024-03-17T02:23:27;99587.59;;;3.32;16.59
80164;BME280;70071;55.130;61.268;2024-03-17T02:25:54;99611.28;;;3.85;15.55
80164;BME280;70071;55.130;61.268;2024-03-17T02:28:20;99589.50;;;3.95;16.00
80164;BME280;70071;55.130;61.268;2024-03-17T02:30:47;99612.97;;;4.07;16.12
80164;BME280;70071;55.130;61.268;2024-03-17T02:33:13;99591.59;;;4.12;15.88
80164;BME280;70071;55.130;61.268;2024-03-17T02:35:39;99607.25;;;4.23;15.76
80164;BME280;70071;55.130;61.268;2024-03-17T02:38:05;99609.09;;;4.54;15.95
80164;BME280;70071;55.130;61.268;2024-03-17T02:40:33;99606.56;;;4.42;15.95
80164;BME280;70071;55.130;61.268;2024-03-17T02:42:59;99605.28;;;4.16;15.73
80164;BME280;70071;55.130;61.268;2024-03-17T02:45:25;99606.81;;;4.18;15.47
80164;BME280;70071;55.130;61.268;2024-03-17T02:47:52;99606.88;;;4.49;15.47
80164;BME280;70071;55.130;61.268;2024-03-17T02:50:18;99626.91;;;4.40;15.22
80164;BME280;70071;55.130;61.268;2024-03-17T02:52:44;99592.91;;;4.06;15.80
80164;BME280;70071;55.130;61.268;2024-03-17T02:55:09;99593.69;;;3.97;15.93
80164;BME280;70071;55.130;61.268;2024-03-17T02:57:35;99594.88;;;3.72;16.29
80164;BME280;70071;55.130;61.268;2024-03-17T03:00:01;99611.78;;;3.79;16.32
80164;BME280;70071;55.130;61.268;2024-03-17T03:02:32;99605.38;;;3.72;16.20
80164;BME280;70071;55.130;61.268;2024-03-17T03:04:58;99622.94;;;3.92;15.97
80164;BME280;70071;55.130;61.268;2024-03-17T03:07:24;99583.03;;;3.78;15.80
80164;BME280;70071;55.130;61.268;2024-03-17T03:09:51;99583.88;;;3.99;15.73
80164;BME280;70071;55.130;61.268;2024-03-17T03:12:17;99581.19;;;3.89;15.97
80164;BME280;70071;55.130;61.268;2024-03-17T03:14:43;99601.56;;;3.97;15.36
80164;BME280;70071;55.130;61.268;2024-03-17T03:17:09;99614.88;;;4.48;15.39
80164;BME280;70071;55.130;61.268;2024-03-17T03:19:35;99617.34;;;4.70;15.24
80164;BME280;70071;55.130;61.268;2024-03-17T03:22:01;99616.56;;;4.49;15.96
80164;BME280;70071;55.130;61.268;2024-03-17T03:24:27;99579.53;;;4.31;16.06
80164;BME280;70071;55.130;61.268;2024-03-17T03:26:53;99589.44;;;4.69;15.48
80164;BME280;70071;55.130;61.268;2024-03-17T03:29:19;99575.34;;;4.80;15.38
80164;BME280;70071;55.130;61.268;2024-03-17T03:31:45;99589.69;;;5.07;15.05
80164;BME280;70071;55.130;61.268;2024-03-17T03:34:11;99610.50;;;5.29;14.93
80164;BME280;70071;55.130;61.268;2024-03-17T03:36:38;99615.44;;;5.63;15.03
80164;BME280;70071;55.130;61.268;2024-03-17T03:39:04;99591.81;;;5.32;15.06
80164;BME280;70071;55.130;61.268;2024-03-17T03:41:31;99612.38;;;5.78;14.56
80164;BME280;70071;55.130;61.268;2024-03-17T03:43:59;99592.41;;;5.36;14.12
80164;BME280;70071;55.130;61.268;2024-03-17T03:46:28;99616.53;;;5.61;14.76
80164;BME280;70071;55.130;61.268;2024-03-17T03:48:54;99569.66;;;5.35;14.73
80164;BME280;70071;55.130;61.268;2024-03-17T03:51:20;99613.47;;;5.65;14.69
80164;BME280;70071;55.130;61.268;2024-03-17T03:53:46;99588.53;;;5.60;14.70
80164;BME280;70071;55.130;61.268;2024-03-17T03:56:12;99593.13;;;5.87;14.63
80164;BME280;70071;55.130;61.268;2024-03-17T03:58:39;99591.03;;;6.20;14.01
80164;BME280;70071;55.130;61.268;2024-03-17T04:01:10;99597.16;;;6.11;14.09
80164;BME280;70071;55.130;61.268;2024-03-17T04:03:47;99608.53;;;6.01;14.45
80164;BME280;70071;55.130;61.268;2024-03-17T04:06:14;99592.47;;;6.04;14.18
80164;BME280;70071;55.130;61.268;2024-03-17T04:08:41;99618.63;;;6.35;14.29
80164;BME280;70071;55.130;61.268;2024-03-17T04:11:08;99579.66;;;6.29;14.26
80164;BME280;70071;55.130;61.268;2024-03-17T04:13:35;99617.88;;;6.63;14.24
80164;BME280;70071;55.130;61.268;2024-03-17T04:16:05;99616.13;;;6.81;14.04
80164;BME280;70071;55.130;61.268;2024-03-17T04:18:33;99623.97;;;6.63;14.06
80164;BME280;70071;55.130;61.268;2024-03-17T04:21:02;99615.53;;;6.97;14.11
80164;BME280;70071;55.130;61.268;2024-03-17T04:23:35;99598.25;;;6.75;14.03
80164;BME280;70071;55.130;61.268;2024-03-17T04:26:01;99598.91;;;6.77;14.19
80164;BME280;70071;55.130;61.268;2024-03-17T04:28:29;99614.53;;;6.98;14.00
80164;BME280;70071;55.130;61.268;2024-03-17T04:31:05;99594.22;;;6.23;14.41
80164;BME280;70071;55.130;61.268;2024-03-17T04:33:33;99594.47;;;5.52;14.81
80164;BME280;70071;55.130;61.268;2024-03-17T04:35:59;99586.41;;;5.34;15.34
80164;BME280;70071;55.130;61.268;2024-03-17T04:38:25;99601.94;;;5.27;14.70
80164;BME280;70071;55.130;61.268;2024-03-17T04:40:54;99601.38;;;5.33;15.52
80164;BME280;70071;55.130;61.268;2024-03-17T04:43:31;99610.69;;;5.47;14.97
80164;BME280;70071;55.130;61.268;2024-03-17T04:46:03;99616.25;;;5.64;14.58
80164;BME280;70071;55.130;61.268;2024-03-17T04:48:33;99622.72;;;5.30;14.27
80164;BME280;70071;55.130;61.268;2024-03-17T04:50:59;99604.59;;;5.57;15.20
80164;BME280;70071;55.130;61.268;2024-03-17T04:53:26;99625.72;;;6.35;15.04
80164;BME280;70071;55.130;61.268;2024-03-17T04:56:03;99620.59;;;6.04;14.45
80164;BME280;70071;55.130;61.268;2024-03-17T04:58:32;99579.53;;;6.11;14.23
80164;BME280;70071;55.130;61.268;2024-03-17T05:01:06;99614.56;;;6.61;14.05
80164;BME280;70071;55.130;61.268;2024-03-17T05:03:33;99603.88;;;6.52;14.38
80164;BME280;70071;55.130;61.268;2024-03-17T05:06:03;99596.66;;;6.92;14.30
80164;BME280;70071;55.130;61.268;2024-03-17T05:08:30;99611.28;;;7.14;13.72
80164;BME280;70071;55.130;61.268;2024-03-17T05:13:27;99605.03;;;7.33;14.22
80164;BME280;70071;55.130;61.268;2024-03-17T05:15:55;99598.78;;;7.34;13.93
80164;BME280;70071;55.130;61.268;2024-03-17T05:18:22;99571.56;;;6.88;13.97
80164;BME280;70071;55.130;61.268;2024-03-17T05:21:00;99595.59;;;6.75;13.78
80164;BME280;70071;55.130;61.268;2024-03-17T05:23:30;99607.97;;;6.74;14.03
80164;BME280;70071;55.130;61.268;2024-03-17T05:25:57;99581.19;;;6.69;14.34
80164;BME280;70071;55.130;61.268;2024-03-17T05:28:25;99612.31;;;6.93;13.84
80164;BME280;70071;55.130;61.268;2024-03-17T05:30:51;99593.03;;;6.93;13.48
80164;BME280;70071;55.130;61.268;2024-03-17T05:33:18;99610.72;;;7.10;12.93
80164;BME280;70071;55.130;61.268;2024-03-17T05:35:55;99601.88;;;8.19;13.23
80164;BME280;70071;55.130;61.268;2024-03-17T05:38:26;99586.25;;;8.44;12.62
80164;BME280;70071;55.130;61.268;2024-03-17T05:43:21;99606.56;;;8.70;12.69
80164;BME280;70071;55.130;61.268;2024-03-17T05:45:48;99592.16;;;8.99;13.08
80164;BME280;70071;55.130;61.268;2024-03-17T05:48:14;99593.31;;;9.04;13.06
80164;BME280;70071;55.130;61.268;2024-03-17T05:50:40;99577.72;;;8.93;12.91
80164;BME280;70071;55.130;61.268;2024-03-17T05:53:06;99553.91;;;8.93;12.96
80164;BME280;70071;55.130;61.268;2024-03-17T05:55:35;99624.25;;;9.55;11.60
80164;BME280;70071;55.130;61.268;2024-03-17T05:58:02;99592.75;;;9.35;12.02
80164;BME280;70071;55.130;61.268;2024-03-17T06:00:28;99592.25;;;9.32;12.05
80164;BME280;70071;55.130;61.268;2024-03-17T06:02:54;99614.78;;;9.44;12.20
80164;BME280;70071;55.130;61.268;2024-03-17T06:05:20;99593.09;;;9.40;12.42
80164;BME280;70071;55.130;61.268;2024-03-17T06:07:46;99587.84;;;9.82;12.03
80164;BME280;70071;55.130;61.268;2024-03-17T06:10:14;99619.66;;;9.90;12.25
80164;BME280;70071;55.130;61.268;2024-03-17T06:12:40;99611.72;;;9.90;12.24
80164;BME280;70071;55.130;61.268;2024-03-17T06:15:06;99609.56;;;10.18;12.02
80164;BME280;70071;55.130;61.268;2024-03-17T06:17:32;99602.94;;;10.22;12.11
80164;BME280;70071;55.130;61.268;2024-03-17T06:19:59;99624.00;;;10.48;11.80
80164;BME280;70071;55.130;61.268;2024-03-17T06:22:28;99601.94;;;10.31;11.89
80164;BME280;70071;55.130;61.268;2024-03-17T06:24:55;99590.69;;;9.96;11.22
80164;BME280;70071;55.130;61.268;2024-03-17T06:27:21;99588.69;;;9.90;11.88
80164;BME280;70071;55.130;61.268;2024-03-17T06:29:47;99589.84;;;10.21;11.58
80164;BME280;70071;55.130;61.268;2024-03-17T06:32:13;99608.09;;;10.07;11.42
80164;BME280;70071;55.130;61.268;2024-03-17T06:34:39;99567.34;;;9.08;12.31
80164;BME280;70071;55.130;61.268;2024-03-17T06:37:05;99607.25;;;9.23;12.82
80164;BME280;70071;55.130;61.268;2024-03-17T06:39:31;99595.44;;;9.01;12.06
80164;BME280;70071;55.130;61.268;2024-03-17T06:41:57;99593.38;;;9.21;12.55
80164;BME280;70071;55.130;61.268;2024-03-17T06:44:23;99578.81;;;9.25;12.19
80164;BME280;70071;55.130;61.268;2024-03-17T06:46:52;99590.88;;;9.11;12.59
80164;BME280;70071;55.130;61.268;2024-03-17T06:49:18;99575.78;;;8.69;12.17
80164;BME280;70071;55.130;61.268;2024-03-17T06:51:44;99567.44;;;8.90;12.35
80164;BME280;70071;55.130;61.268;2024-03-17T06:54:10;99567.44;;;8.90;12.34
80164;BME280;70071;55.130;61.268;2024-03-17T06:56:36;99566.94;;;9.46;12.18
80164;BME280;70071;55.130;61.268;2024-03-17T06:59:03;99581.72;;;9.73;12.37
80164;BME280;70071;55.130;61.268;2024-03-17T07:04:13;99576.38;;;9.48;12.03
80164;BME280;70071;55.130;61.268;2024-03-17T07:06:39;99584.22;;;10.07;11.65
80164;BME280;70071;55.130;61.268;2024-03-17T07:09:05;99574.75;;;9.88;11.73
80164;BME280;70071;55.130;61.268;2024-03-17T07:11:31;99576.75;;;10.11;11.96
80164;BME280;70071;55.130;61.268;2024-03-17T07:13:57;99578.41;;;9.95;11.70
80164;BME280;70071;55.130;61.268;2024-03-17T07:16:23;99587.69;;;10.57;12.78
80164;BME280;70071;55.130;61.268;2024-03-17T07:18:51;99561.69;;;10.28;11.71
80164;BME280;70071;55.130;61.268;2024-03-17T07:21:18;99560.84;;;10.44;12.12
80164;BME280;70071;55.130;61.268;2024-03-17T07:23:44;99587.13;;;10.70;11.90
80164;BME280;70071;55.130;61.268;2024-03-17T07:26:10;99572.13;;;10.38;11.84
80164;BME280;70071;55.130;61.268;2024-03-17T07:28:36;99551.25;;;10.82;11.67
80164;BME280;70071;55.130;61.268;2024-03-17T07:31:08;99589.34;;;10.58;11.92
80164;BME280;70071;55.130;61.268;2024-03-17T07:34:00;99555.16;;;11.03;12.66
80164;BME280;70071;55.130;61.268;2024-03-17T07:36:26;99581.78;;;10.87;11.61
80164;BME280;70071;55.130;61.268;2024-03-17T07:38:52;99566.41;;;11.05;11.82
80164;BME280;70071;55.130;61.268;2024-03-17T07:41:18;99585.63;;;11.15;11.29
80164;BME280;70071;55.130;61.268;2024-03-17T07:43:49;99590.75;;;10.86;11.68
80164;BME280;70071;55.130;61.268;2024-03-17T07:46:15;99597.41;;;10.73;11.73
80164;BME280;70071;55.130;61.268;2024-03-17T07:48:43;99582.88;;;10.53;12.57
80164;BME280;70071;55.130;61.268;2024-03-17T07:51:11;99592.91;;;10.82;12.24
80164;BME280;70071;55.130;61.268;2024-03-17T07:53:39;99580.50;;;11.14;12.02
80164;BME280;70071;55.130;61.268;2024-03-17T07:56:10;99578.88;;;11.05;11.78
80164;BME280;70071;55.130;61.268;2024-03-17T07:58:38;99583.50;;;11.11;12.32
80164;BME280;70071;55.130;61.268;2024-03-17T08:01:06;99567.16;;;11.53;12.03
80164;BME280;70071;55.130;61.268;2024-03-17T08:03:34;99586.19;;;11.88;11.44
80164;BME280;70071;55.130;61.268;2024-03-17T08:06:03;99562.69;;;11.77;12.47
80164;BME280;70071;55.130;61.268;2024-03-17T08:08:29;99545.06;;;11.30;11.91
80164;BME280;70071;55.130;61.268;2024-03-17T08:10:55;99584.25;;;11.28;12.02
80164;BME280;70071;55.130;61.268;2024-03-17T08:13:21;99574.66;;;11.50;12.34
80164;BME280;70071;55.130;61.268;2024-03-17T08:16:00;99573.78;;;11.58;12.10
80164;BME280;70071;55.130;61.268;2024-03-17T08:18:26;99580.47;;;11.22;11.96
80164;BME280;70071;55.130;61.268;2024-03-17T08:20:55;99564.22;;;11.48;11.72
80164;BME280;70071;55.130;61.268;2024-03-17T08:23:24;99557.38;;;12.00;12.04
80164;BME280;70071;55.130;61.268;2024-03-17T08:25:54;99549.56;;;11.76;12.36
80164;BME280;70071;55.130;61.268;2024-03-17T08:28:21;99576.44;;;12.04;11.98
80164;BME280;70071;55.130;61.268;2024-03-17T08:30:59;99542.34;;;11.84;11.80
80164;BME280;70071;55.130;61.268;2024-03-17T08:33:27;99561.97;;;12.06;11.71
80164;BME280;70071;55.130;61.268;2024-03-17T08:36:08;99539.16;;;12.12;11.06
80164;BME280;70071;55.130;61.268;2024-03-17T08:38:36;99537.63;;;11.95;11.16
80164;BME280;70071;55.130;61.268;2024-03-17T08:41:03;99541.13;;;12.48;10.87
80164;BME280;70071;55.130;61.268;2024-03-17T08:43:30;99522.84;;;12.60;10.94
80164;BME280;70071;55.130;61.268;2024-03-17T08:46:01;99563.94;;;12.87;11.25
80164;BME280;70071;55.130;61.268;2024-03-17T08:48:31;99566.94;;;13.29;11.48
80164;BME280;70071;55.130;61.268;2024-03-17T08:50:58;99540.72;;;13.32;11.11
80164;BME280;70071;55.130;61.268;2024-03-17T08:53:25;99568.91;;;13.57;11.74
80164;BME280;70071;55.130;61.268;2024-03-17T08:55:53;99537.09;;;13.19;10.75
80164;BME280;70071;55.130;61.268;2024-03-17T08:58:19;99548.66;;;13.26;11.05
80164;BME280;70071;55.130;61.268;2024-03-17T09:00:46;99532.56;;;13.19;12.17
80164;BME280;70071;55.130;61.268;2024-03-17T09:03:12;99530.56;;;13.36;10.97
80164;BME280;70071;55.130;61.268;2024-03-17T09:05:39;99557.31;;;13.13;11.21
80164;BME280;70071;55.130;61.268;2024-03-17T09:08:07;99539.69;;;13.48;11.72
80164;BME280;70071;55.130;61.268;2024-03-17T09:10:39;99533.63;;;13.03;11.18
80164;BME280;70071;55.130;61.268;2024-03-17T09:13:05;99547.47;;;12.77;11.04
80164;BME280;70071;55.130;61.268;2024-03-17T09:15:31;99542.41;;;13.55;11.60
80164;BME280;70071;55.130;61.268;2024-03-17T09:17:57;99558.00;;;14.23;10.77
80164;BME280;70071;55.130;61.268;2024-03-17T09:20:24;99526.69;;;13.82;10.79
80164;BME280;70071;55.130;61.268;2024-03-17T09:22:50;99537.44;;;14.24;11.11
80164;BME280;70071;55.130;61.268;2024-03-17T09:25:16;99539.66;;;14.83;11.56
80164;BME280;70071;55.130;61.268;2024-03-17T09:27:43;99544.47;;;15.01;10.68
80164;BME280;70071;55.130;61.268;2024-03-17T09:30:09;99525.63;;;15.09;10.33
80164;BME280;70071;55.130;61.268;2024-03-17T09:32:37;99516.44;;;14.77;10.91
80164;BME280;70071;55.130;61.268;2024-03-17T09:35:04;99517.03;;;15.41;10.37
80164;BME280;70071;55.130;61.268;2024-03-17T09:37:31;99519.81;;;15.94;10.99
80164;BME280;70071;55.130;61.268;2024-03-17T09:39:58;99521.44;;;15.95;10.27
80164;BME280;70071;55.130;61.268;2024-03-17T09:42:26;99539.75;;;16.39;10.66
80164;BME280;70071;55.130;61.268;2024-03-17T09:44:56;99527.25;;;16.84;10.50
80164;BME280;70071;55.130;61.268;2024-03-17T09:47:24;99530.63;;;16.53;9.80
80164;BME280;70071;55.130;61.268;2024-03-17T09:49:52;99525.72;;;16.37;9.44
80164;BME280;70071;55.130;61.268;2024-03-17T09:52:21;99534.50;;;16.77;9.75
80164;BME280;70071;55.130;61.268;2024-03-17T09:54:58;99514.78;;;16.58;8.96
80164;BME280;70071;55.130;61.268;2024-03-17T09:57:25;99525.38;;;15.99;9.30
80164;BME280;70071;55.130;61.268;2024-03-17T09:59:54;99525.97;;;16.28;9.33
80164;BME280;70071;55.130;61.268;2024-03-17T10:02:21;99526.50;;;17.54;9.63
80164;BME280;70071;55.130;61.268;2024-03-17T10:04:48;99526.22;;;17.94;10.62
80164;BME280;70071;55.130;61.268;2024-03-17T10:07:14;99511.41;;;18.54;10.31
80164;BME280;70071;55.130;61.268;2024-03-17T10:09:42;99483.03;;;18.40;9.71
80164;BME280;70071;55.130;61.268;2024-03-17T10:12:26;99527.47;;;18.17;9.56
80164;BME280;70071;55.130;61.268;2024-03-17T10:14:59;99507.53;;;18.87;9.70
80164;BME280;70071;55.130;61.268;2024-03-17T10:17:30;99497.19;;;18.84;9.18
80164;BME280;70071;55.130;61.268;2024-03-17T10:25:33;99511.38;;;19.10;9.64
80164;BME280;70071;55.130;61.268;2024-03-17T10:28:00;99513.63;;;19.85;9.83
80164;BME280;70071;55.130;61.268;2024-03-17T10:30:27;99494.66;;;20.39;9.88
80164;BME280;70071;55.130;61.268;2024-03-17T10:32:59;99511.56;;;20.87;9.39
80164;BME280;70071;55.130;61.268;2024-03-17T10:35:30;99510.81;;;21.04;9.52
80164;BME280;70071;55.130;61.268;2024-03-17T10:37:57;99498.63;;;21.30;8.92
80164;BME280;70071;55.130;61.268;2024-03-17T10:40:25;99516.88;;;21.52;8.77
80164;BME280;70071;55.130;61.268;2024-03-17T10:42:51;99503.75;;;20.74;8.31
80164;BME280;70071;55.130;61.268;2024-03-17T10:45:18;99494.72;;;20.80;8.74
80164;BME280;70071;55.130;61.268;2024-03-17T10:47:48;99499.34;;;21.25;9.43
80164;BME280;70071;55.130;61.268;2024-03-17T10:50:23;99499.91;;;20.58;8.89
80164;BME280;70071;55.130;61.268;2024-03-17T10:52:55;99486.81;;;20.14;8.03
80164;BME280;70071;55.130;61.268;2024-03-17T10:55:25;99485.47;;;19.58;8.35
80164;BME280;70071;55.130;61.268;2024-03-17T10:57:53;99490.34;;;19.49;7.98
80164;BME280;70071;55.130;61.268;2024-03-17T11:00:22;99484.78;;;19.74;8.39
80164;BME280;70071;55.130;61.268;2024-03-17T11:02:52;99501.09;;;19.79;8.21
80164;BME280;70071;55.130;61.268;2024-03-17T11:05:23;99505.06;;;20.71;9.42
80164;BME280;70071;55.130;61.268;2024-03-17T11:07:53;99475.22;;;20.90;7.97
80164;BME280;70071;55.130;61.268;2024-03-17T11:10:35;99483.72;;;20.70;8.06
80164;BME280;70071;55.130;61.268;2024-03-17T11:13:03;99472.06;;;21.10;8.10
80164;BME280;70071;55.130;61.268;2024-03-17T11:18:25;99492.97;;;20.62;7.59
80164;BME280;70071;55.130;61.268;2024-03-17T11:20:59;99491.25;;;20.97;8.05
80164;BME280;70071;55.130;61.268;2024-03-17T11:23:33;99481.38;;;21.02;7.86
80164;BME280;70071;55.130;61.268;2024-03-17T11:25:59;99476.03;;;21.19;7.49
80164;BME280;70071;55.130;61.268;2024-03-17T11:31:36;99487.66;;;21.65;7.48
80164;BME280;70071;55.130;61.268;2024-03-17T11:36:52;99470.63;;;21.65;7.45
80164;BME280;70071;55.130;61.268;2024-03-17T11:42:15;99450.06;;;21.01;7.23
80164;BME280;70071;55.130;61.268;2024-03-17T11:44:43;99457.75;;;21.38;6.66
80164;BME280;70071;55.130;61.268;2024-03-17T11:47:11;99443.03;;;21.46;7.16
80164;BME280;70071;55.130;61.268;2024-03-17T11:49:40;99457.25;;;22.09;8.24
80164;BME280;70071;55.130;61.268;2024-03-17T11:52:14;99466.19;;;22.71;7.78
80164;BME280;70071;55.130;61.268;2024-03-17T11:54:42;99451.47;;;22.62;6.77
80164;BME280;70071;55.130;61.268;2024-03-17T11:57:13;99424.44;;;22.23;6.82
80164;BME280;70071;55.130;61.268;2024-03-17T11:59:40;99432.47;;;21.78;7.31
80164;BME280;70071;55.130;61.268;2024-03-17T12:02:20;99451.97;;;22.81;7.82
80164;BME280;70071;55.130;61.268;2024-03-17T12:04:48;99417.81;;;23.29;6.65
80164;BME280;70071;55.130;61.268;2024-03-17T12:07:16;99448.69;;;22.79;6.78
80164;BME280;70071;55.130;61.268;2024-03-17T12:09:43;99445.88;;;22.68;6.55
80164;BME280;70071;55.130;61.268;2024-03-17T12:12:22;99438.69;;;22.57;7.24
80164;BME280;70071;55.130;61.268;2024-03-17T12:14:50;99447.88;;;22.56;6.33
80164;BME280;70071;55.130;61.268;2024-03-17T12:17:24;99426.28;;;22.83;7.35
80164;BME280;70071;55.130;61.268;2024-03-17T12:19:51;99433.09;;;23.46;7.00
80164;BME280;70071;55.130;61.268;2024-03-17T12:22:22;99427.41;;;23.42;6.83
80164;BME280;70071;55.130;61.268;2024-03-17T12:24:54;99409.00;;;23.44;7.02
80164;BME280;70071;55.130;61.268;2024-03-17T12:27:22;99437.44;;;23.41;6.21
80164;BME280;70071;55.130;61.268;2024-03-17T12:29:52;99419.66;;;22.96;5.99
80164;BME280;70071;55.130;61.268;2024-03-17T12:32:23;99422.94;;;22.49;6.61
80164;BME280;70071;55.130;61.268;2024-03-17T12:34:56;99419.13;;;22.99;6.33
80164;BME280;70071;55.130;61.268;2024-03-17T12:37:26;99417.38;;;23.42;6.61
80164;BME280;70071;55.130;61.268;2024-03-17T12:40:00;99400.09;;;23.49;6.32
80164;BME280;70071;55.130;61.268;2024-03-17T12:42:27;99397.00;;;23.67;6.46
80164;BME280;70071;55.130;61.268;2024-03-17T12:44:57;99416.63;;;26.59;5.62
80164;BME280;70071;55.130;61.268;2024-03-17T12:47:29;99420.88;;;27.60;5.53
80164;BME280;70071;55.130;61.268;2024-03-17T12:49:59;99401.59;;;27.80;5.32
80164;BME280;70071;55.130;61.268;2024-03-17T12:52:33;99406.50;;;28.08;5.01
80164;BME280;70071;55.130;61.268;2024-03-17T12:55:06;99378.91;;;27.85;4.94
80164;BME280;70071;55.130;61.268;2024-03-17T13:00:44;99404.78;;;28.36;5.10
80164;BME280;70071;55.130;61.268;2024-03-17T13:03:24;99394.31;;;28.43;5.13
80164;BME280;70071;55.130;61.268;2024-03-17T13:05:50;99400.28;;;28.26;5.30
80164;BME280;70071;55.130;61.268;2024-03-17T13:08:17;99388.44;;;28.12;5.15
80164;BME280;70071;55.130;61.268;2024-03-17T13:10:43;99385.63;;;27.93;4.63
80164;BME280;70071;55.130;61.268;2024-03-17T13:13:12;99373.72;;;27.59;4.49
80164;BME280;70071;55.130;61.268;2024-03-17T13:15:41;99395.16;;;27.71;4.91
80164;BME280;70071;55.130;61.268;2024-03-17T13:18:08;99383.94;;;27.43;4.67
80164;BME280;70071;55.130;61.268;2024-03-17T13:20:35;99365.09;;;27.12;4.62
80164;BME280;70071;55.130;61.268;2024-03-17T13:23:01;99403.59;;;27.01;5.19
80164;BME280;70071;55.130;61.268;2024-03-17T13:25:29;99401.34;;;26.68;5.15
80164;BME280;70071;55.130;61.268;2024-03-17T13:28:00;99392.03;;;26.14;5.22
80164;BME280;70071;55.130;61.268;2024-03-17T13:30:27;99391.09;;;25.59;5.44